createdAt,value
2022-10-04T00:00:35.276Z,80.26
2022-10-04T00:01:35.241Z,80.26
2022-10-04T00:02:35.130Z,80.16
2022-10-04T00:03:35.027Z,79.88
2022-10-04T00:04:34.947Z,79.60
2022-10-04T00:05:34.862Z,79.50
2022-10-04T00:06:34.780Z,79.79
2022-10-04T00:07:34.700Z,79.88
2022-10-04T00:08:34.615Z,79.31
2022-10-04T00:09:34.533Z,79.50
2022-10-04T00:10:34.473Z,79.50
2022-10-04T00:11:34.514Z,79.41
2022-10-04T00:12:34.282Z,79.88
2022-10-04T00:13:34.198Z,79.60
2022-10-04T00:14:34.123Z,79.31
2022-10-04T00:15:34.035Z,79.79
2022-10-04T00:16:34.045Z,79.79
2022-10-04T00:17:33.870Z,79.41
2022-10-04T00:18:33.788Z,79.22
2022-10-04T00:19:33.703Z,79.03
2022-10-04T00:20:33.620Z,79.22
2022-10-04T00:21:33.536Z,78.83
2022-10-04T00:22:33.452Z,78.83
2022-10-04T00:23:33.370Z,78.74
2022-10-04T00:24:33.289Z,78.64
2022-10-04T00:25:33.204Z,78.74
2022-10-04T00:26:33.142Z,78.74
2022-10-04T00:27:33.039Z,78.74
2022-10-04T00:28:33.017Z,78.74
2022-10-04T00:29:32.873Z,78.17
2022-10-04T00:30:32.791Z,78.93
2022-10-04T00:31:32.827Z,78.83
2022-10-04T00:32:32.625Z,78.93
2022-10-04T00:33:32.541Z,78.45
2022-10-04T00:34:32.462Z,78.74
2022-10-04T00:35:32.379Z,78.74
2022-10-04T00:36:32.295Z,78.74
2022-10-04T00:37:32.211Z,79.12
2022-10-04T00:38:32.131Z,79.12
2022-10-04T00:39:32.048Z,79.12
2022-10-04T00:40:31.966Z,78.55
2022-10-04T00:41:31.878Z,78.45
2022-10-04T00:42:31.823Z,78.45
2022-10-04T00:43:31.714Z,78.08
2022-10-04T00:44:31.632Z,78.36
2022-10-04T00:45:31.547Z,78.36
2022-10-04T00:46:31.505Z,78.08
2022-10-04T00:47:31.384Z,78.45
2022-10-04T00:48:31.831Z,78.93
2022-10-04T00:49:31.219Z,78.83
2022-10-04T00:50:31.134Z,78.45
2022-10-04T00:51:31.050Z,78.64
2022-10-04T00:52:30.968Z,78.74
2022-10-04T00:53:30.885Z,78.27
2022-10-04T00:54:30.801Z,78.45
2022-10-04T00:55:30.729Z,77.70
2022-10-04T00:56:30.638Z,77.79
2022-10-04T00:57:30.552Z,77.79
2022-10-04T00:58:30.490Z,77.79
2022-10-04T00:59:30.387Z,77.79
2022-10-04T01:00:30.303Z,77.51
2022-10-04T01:01:30.303Z,77.60
2022-10-04T01:02:30.197Z,77.51
2022-10-04T01:03:30.057Z,77.60
2022-10-04T01:04:29.973Z,77.70
2022-10-04T01:05:29.891Z,77.70
2022-10-04T01:06:29.811Z,77.60
2022-10-04T01:07:29.725Z,77.60
2022-10-04T01:08:29.643Z,77.51
2022-10-04T01:09:29.557Z,78.27
2022-10-04T01:10:29.476Z,78.27
2022-10-04T01:11:29.393Z,77.60
2022-10-04T01:12:29.312Z,77.31
2022-10-04T01:13:29.225Z,76.93
2022-10-04T01:14:29.258Z,77.12
2022-10-04T01:15:29.062Z,77.12
2022-10-04T01:16:29.059Z,77.12
2022-10-04T01:17:28.895Z,76.75
2022-10-04T01:18:28.813Z,77.12
2022-10-04T01:19:28.730Z,77.31
2022-10-04T01:20:28.646Z,77.31
2022-10-04T01:21:28.563Z,76.84
2022-10-04T01:22:28.483Z,77.41
2022-10-04T01:23:28.396Z,76.84
2022-10-04T01:24:28.316Z,77.12
2022-10-04T01:25:28.233Z,76.93
2022-10-04T01:26:28.150Z,76.75
2022-10-04T01:27:28.067Z,77.31
2022-10-04T01:28:28.020Z,77.12
2022-10-04T01:29:27.900Z,76.37
2022-10-04T01:30:27.838Z,76.56
2022-10-04T01:31:27.953Z,76.93
2022-10-04T01:32:27.652Z,76.56
2022-10-04T01:33:27.569Z,76.27
2022-10-04T01:34:27.486Z,76.37
2022-10-04T01:35:27.402Z,76.37
2022-10-04T01:36:27.321Z,75.79
2022-10-04T01:37:27.239Z,75.70
2022-10-04T01:38:27.155Z,76.08
2022-10-04T01:39:27.073Z,76.27
2022-10-04T01:40:26.989Z,76.27
2022-10-04T01:41:26.904Z,76.37
2022-10-04T01:42:26.825Z,76.37
2022-10-04T01:43:26.741Z,76.18
2022-10-04T01:44:26.657Z,76.56
2022-10-04T01:45:26.577Z,76.84
2022-10-04T01:46:26.595Z,76.56
2022-10-04T01:47:26.410Z,76.37
2022-10-04T01:48:26.330Z,76.93
2022-10-04T01:49:26.244Z,77.31
2022-10-04T01:50:26.161Z,77.70
2022-10-04T01:51:26.079Z,77.70
2022-10-04T01:52:25.997Z,78.27
2022-10-04T01:53:25.911Z,78.27
2022-10-04T01:54:25.831Z,78.27
2022-10-04T01:55:25.745Z,78.36
2022-10-04T01:56:25.663Z,78.03
2022-10-04T01:57:25.579Z,78.03
2022-10-04T01:58:25.555Z,78.23
2022-10-04T01:59:25.418Z,78.36
2022-10-04T02:00:25.336Z,77.89
2022-10-04T02:01:25.295Z,77.51
2022-10-04T02:02:25.184Z,77.51
2022-10-04T02:03:25.082Z,77.41
2022-10-04T02:04:25.051Z,77.31
2022-10-04T02:05:24.921Z,77.56
2022-10-04T02:06:24.836Z,77.41
2022-10-04T02:07:24.752Z,77.51
2022-10-04T02:08:24.667Z,77.47
2022-10-04T02:09:24.584Z,77.18
2022-10-04T02:10:24.504Z,77.18
2022-10-04T02:11:24.420Z,77.47
2022-10-04T02:12:24.335Z,77.56
2022-10-04T02:13:24.256Z,76.90
2022-10-04T02:14:24.170Z,76.90
2022-10-04T02:15:24.086Z,76.90
2022-10-04T02:16:24.089Z,76.99
2022-10-04T02:17:23.920Z,77.09
2022-10-04T02:18:23.858Z,76.84
2022-10-04T02:19:23.754Z,76.65
2022-10-04T02:20:23.672Z,76.56
2022-10-04T02:21:23.594Z,76.37
2022-10-04T02:22:23.506Z,76.65
2022-10-04T02:23:23.421Z,75.70
2022-10-04T02:24:23.350Z,76.27
2022-10-04T02:25:23.253Z,75.70
2022-10-04T02:26:23.173Z,75.70
2022-10-04T02:27:23.088Z,75.70
2022-10-04T02:28:23.218Z,75.89
2022-10-04T02:29:22.926Z,75.99
2022-10-04T02:30:22.842Z,75.99
2022-10-04T02:31:22.864Z,76.08
2022-10-04T02:32:22.676Z,76.37
2022-10-04T02:33:22.592Z,76.08
2022-10-04T02:34:22.528Z,75.99
2022-10-04T02:35:22.431Z,76.27
2022-10-04T02:36:22.343Z,76.27
2022-10-04T02:37:22.260Z,76.08
2022-10-04T02:38:22.180Z,76.56
2022-10-04T02:39:22.094Z,76.56
2022-10-04T02:40:22.011Z,76.08
2022-10-04T02:41:21.928Z,76.46
2022-10-04T02:42:21.846Z,76.18
2022-10-04T02:43:21.763Z,76.27
2022-10-04T02:44:21.680Z,75.79
2022-10-04T02:45:21.595Z,75.79
2022-10-04T02:46:21.593Z,75.70
2022-10-04T02:47:21.430Z,76.08
2022-10-04T02:48:21.348Z,76.27
2022-10-04T02:49:21.263Z,75.89
2022-10-04T02:50:21.451Z,75.79
2022-10-04T02:51:21.100Z,75.04
2022-10-04T02:52:21.019Z,74.94
2022-10-04T02:53:20.933Z,74.85
2022-10-04T02:54:20.851Z,75.23
2022-10-04T02:55:20.769Z,74.94
2022-10-04T02:56:20.683Z,75.79
2022-10-04T02:57:20.599Z,75.89
2022-10-04T02:58:20.519Z,76.27
2022-10-04T02:59:20.435Z,76.65
2022-10-04T03:00:20.354Z,76.46
2022-10-04T03:01:20.331Z,76.46
2022-10-04T03:02:28.689Z,76.46
2022-10-04T03:03:20.106Z,76.56
2022-10-04T03:04:20.021Z,76.56
2022-10-04T03:05:19.942Z,76.56
2022-10-04T03:06:19.876Z,76.46
2022-10-04T03:07:19.774Z,76.46
2022-10-04T03:08:19.691Z,76.46
2022-10-04T03:09:19.611Z,76.75
2022-10-04T03:10:19.526Z,77.03
2022-10-04T03:11:19.446Z,77.12
2022-10-04T03:12:19.362Z,76.99
2022-10-04T03:13:19.278Z,77.03
2022-10-04T03:14:19.193Z,77.09
2022-10-04T03:15:19.112Z,77.37
2022-10-04T03:16:19.081Z,77.28
2022-10-04T03:17:18.946Z,77.37
2022-10-04T03:18:18.862Z,77.09
2022-10-04T03:19:18.781Z,76.93
2022-10-04T03:20:18.693Z,77.22
2022-10-04T03:21:18.613Z,76.46
2022-10-04T03:22:18.547Z,76.37
2022-10-04T03:23:18.446Z,76.46
2022-10-04T03:24:18.362Z,76.27
2022-10-04T03:25:18.281Z,76.37
2022-10-04T03:26:18.196Z,76.52
2022-10-04T03:27:18.315Z,76.37
2022-10-04T03:28:18.133Z,76.56
2022-10-04T03:29:17.947Z,76.18
2022-10-04T03:30:17.862Z,76.18
2022-10-04T03:31:17.850Z,75.79
2022-10-04T03:32:17.698Z,75.60
2022-10-04T03:33:17.617Z,75.79
2022-10-04T03:34:17.530Z,75.79
2022-10-04T03:35:17.449Z,75.32
2022-10-04T03:36:17.364Z,75.04
2022-10-04T03:37:17.283Z,75.13
2022-10-04T03:38:17.217Z,74.94
2022-10-04T03:39:17.118Z,75.42
2022-10-04T03:40:17.032Z,75.13
2022-10-04T03:41:16.950Z,75.13
2022-10-04T03:42:16.867Z,75.42
2022-10-04T03:43:16.783Z,75.23
2022-10-04T03:44:16.699Z,75.23
2022-10-04T03:45:16.617Z,74.94
2022-10-04T03:46:16.596Z,75.42
2022-10-04T03:47:16.461Z,75.04
2022-10-04T03:48:16.380Z,75.32
2022-10-04T03:49:16.286Z,74.94
2022-10-04T03:50:16.203Z,75.13
2022-10-04T03:51:16.120Z,75.23
2022-10-04T03:52:16.035Z,75.23
2022-10-04T03:53:15.955Z,75.04
2022-10-04T03:54:15.891Z,75.32
2022-10-04T03:55:15.787Z,75.13
2022-10-04T03:56:15.701Z,75.04
2022-10-04T03:57:15.671Z,74.85
2022-10-04T03:58:15.537Z,75.23
2022-10-04T03:59:15.456Z,74.94
2022-10-04T04:00:15.375Z,75.00
2022-10-04T04:01:15.362Z,75.19
2022-10-04T04:02:15.245Z,75.19
2022-10-04T04:03:15.123Z,75.19
2022-10-04T04:04:15.038Z,75.00
2022-10-04T04:05:14.958Z,75.19
2022-10-04T04:06:14.873Z,75.09
2022-10-04T04:07:14.791Z,75.00
2022-10-04T04:08:14.719Z,74.33
2022-10-04T04:09:14.624Z,74.27
2022-10-04T04:10:16.942Z,73.99
2022-10-04T04:11:14.458Z,74.18
2022-10-04T04:12:14.370Z,74.47
2022-10-04T04:13:14.294Z,74.47
2022-10-04T04:14:14.207Z,74.27
2022-10-04T04:15:14.128Z,74.37
2022-10-04T04:16:14.093Z,73.99
2022-10-04T04:17:13.957Z,73.90
2022-10-04T04:18:13.924Z,73.61
2022-10-04T04:19:13.793Z,73.61
2022-10-04T04:20:13.707Z,73.71
2022-10-04T04:21:13.625Z,73.71
2022-10-04T04:22:13.540Z,73.80
2022-10-04T04:23:13.459Z,73.42
2022-10-04T04:24:13.378Z,73.71
2022-10-04T04:25:13.293Z,73.61
2022-10-04T04:26:13.230Z,73.99
2022-10-04T04:27:13.132Z,74.27
2022-10-04T04:28:13.151Z,74.27
2022-10-04T04:29:12.964Z,74.18
2022-10-04T04:30:12.875Z,73.80
2022-10-04T04:31:12.830Z,74.18
2022-10-04T04:32:12.764Z,74.75
2022-10-04T04:33:12.633Z,73.80
2022-10-04T04:34:12.548Z,74.47
2022-10-04T04:35:12.463Z,74.18
2022-10-04T04:36:12.377Z,74.18
2022-10-04T04:37:12.299Z,74.27
2022-10-04T04:38:12.215Z,74.18
2022-10-04T04:39:12.134Z,74.56
2022-10-04T04:40:12.047Z,75.32
2022-10-04T04:41:11.967Z,75.32
2022-10-04T04:42:11.899Z,75.13
2022-10-04T04:43:11.800Z,74.85
2022-10-04T04:44:11.718Z,75.67
2022-10-04T04:45:11.635Z,75.47
2022-10-04T04:46:28.128Z,75.67
2022-10-04T04:47:13.263Z,75.79
2022-10-04T04:48:11.384Z,75.19
2022-10-04T04:49:11.303Z,75.23
2022-10-04T04:50:11.220Z,75.38
2022-10-04T04:51:11.137Z,75.13
2022-10-04T04:52:11.051Z,74.94
2022-10-04T04:53:10.973Z,74.94
2022-10-04T04:54:10.892Z,75.23
2022-10-04T04:55:10.805Z,75.23
2022-10-04T04:56:13.444Z,74.94
2022-10-04T04:57:10.639Z,75.32
2022-10-04T04:58:10.573Z,75.13
2022-10-04T04:59:10.473Z,74.94
2022-10-04T05:00:10.390Z,75.04
2022-10-04T05:01:10.561Z,75.32
2022-10-04T05:02:10.276Z,74.94
2022-10-04T05:03:10.142Z,75.09
2022-10-04T05:04:10.057Z,75.13
2022-10-04T05:05:09.977Z,75.04
2022-10-04T05:06:09.893Z,75.04
2022-10-04T05:07:09.811Z,74.56
2022-10-04T05:08:09.726Z,74.75
2022-10-04T05:09:09.643Z,74.08
2022-10-04T05:10:09.561Z,74.08
2022-10-04T05:11:09.479Z,73.71
2022-10-04T05:12:09.403Z,74.27
2022-10-04T05:13:09.313Z,73.80
2022-10-04T05:14:09.349Z,73.90
2022-10-04T05:15:09.321Z,73.61
2022-10-04T05:16:09.133Z,73.42
2022-10-04T05:17:08.985Z,73.61
2022-10-04T05:18:08.897Z,73.04
2022-10-04T05:19:08.816Z,73.14
2022-10-04T05:20:08.732Z,72.85
2022-10-04T05:21:08.650Z,73.61
2022-10-04T05:22:08.567Z,73.61
2022-10-04T05:23:08.483Z,73.61
2022-10-04T05:24:08.401Z,73.04
2022-10-04T05:25:08.320Z,73.23
2022-10-04T05:26:08.236Z,72.95
2022-10-04T05:27:08.302Z,72.56
2022-10-04T05:28:08.125Z,72.70
2022-10-04T05:29:07.990Z,72.70
2022-10-04T05:30:07.933Z,72.79
2022-10-04T05:31:07.825Z,72.70
2022-10-04T05:32:07.797Z,72.70
2022-10-04T05:33:07.660Z,72.32
2022-10-04T05:34:07.575Z,72.41
2022-10-04T05:35:07.492Z,72.32
2022-10-04T05:36:07.409Z,72.13
2022-10-04T05:37:07.328Z,71.94
2022-10-04T05:38:07.243Z,72.13
2022-10-04T05:39:07.163Z,72.03
2022-10-04T05:40:07.079Z,72.22
2022-10-04T05:41:06.999Z,72.32
2022-10-04T05:42:06.912Z,72.22
2022-10-04T05:43:06.833Z,72.32
2022-10-04T05:44:06.745Z,71.66
2022-10-04T05:45:06.666Z,71.66
2022-10-04T05:46:06.692Z,72.32
2022-10-04T05:47:06.505Z,72.32
2022-10-04T05:48:06.414Z,72.51
2022-10-04T05:49:06.335Z,72.41
2022-10-04T05:50:06.251Z,72.32
2022-10-04T05:51:06.171Z,72.32
2022-10-04T05:52:06.085Z,72.51
2022-10-04T05:53:06.005Z,71.94
2022-10-04T05:54:05.923Z,71.75
2022-10-04T05:55:05.841Z,71.66
2022-10-04T05:56:05.763Z,72.41
2022-10-04T05:57:05.675Z,72.03
2022-10-04T05:58:05.591Z,72.41
2022-10-04T05:59:05.513Z,72.13
2022-10-04T06:00:05.433Z,72.32
2022-10-04T06:01:05.399Z,72.41
2022-10-04T06:02:05.345Z,72.51
2022-10-04T06:03:05.183Z,72.79
2022-10-04T06:04:05.098Z,72.89
2022-10-04T06:05:05.018Z,73.27
2022-10-04T06:06:04.936Z,72.89
2022-10-04T06:07:04.853Z,72.79
2022-10-04T06:08:04.768Z,73.27
2022-10-04T06:09:04.689Z,72.99
2022-10-04T06:10:04.608Z,73.27
2022-10-04T06:11:04.524Z,72.70
2022-10-04T06:12:04.440Z,72.79
2022-10-04T06:13:04.360Z,72.70
2022-10-04T06:14:04.277Z,72.70
2022-10-04T06:15:04.196Z,72.35
2022-10-04T06:16:04.113Z,72.16
2022-10-04T06:17:04.070Z,72.16
2022-10-04T06:18:03.967Z,72.55
2022-10-04T06:19:03.875Z,72.26
2022-10-04T06:20:03.786Z,72.16
2022-10-04T06:21:03.705Z,72.26
2022-10-04T06:22:03.621Z,72.26
2022-10-04T06:23:03.543Z,72.55
2022-10-04T06:24:03.456Z,73.59
2022-10-04T06:25:03.374Z,73.69
2022-10-04T06:26:03.297Z,73.78
2022-10-04T06:27:03.213Z,73.88
2022-10-04T06:28:03.183Z,74.26
2022-10-04T06:29:03.049Z,74.07
2022-10-04T06:30:02.967Z,73.88
2022-10-04T06:31:02.960Z,74.54
2022-10-04T06:32:02.807Z,74.73
2022-10-04T06:33:02.723Z,74.26
2022-10-04T06:34:02.770Z,74.73
2022-10-04T06:35:02.561Z,74.44
2022-10-04T06:36:02.476Z,74.44
2022-10-04T06:37:02.398Z,74.54
2022-10-04T06:38:02.315Z,74.35
2022-10-04T06:39:04.371Z,74.63
2022-10-04T06:40:02.152Z,75.02
2022-10-04T06:41:02.071Z,75.21
2022-10-04T06:42:01.990Z,75.11
2022-10-04T06:43:01.908Z,75.21
2022-10-04T06:44:01.836Z,75.87
2022-10-04T06:45:01.757Z,75.68
2022-10-04T06:46:01.713Z,75.24
2022-10-04T06:47:01.581Z,75.53
2022-10-04T06:48:01.498Z,75.62
2022-10-04T06:49:01.418Z,76.01
2022-10-04T06:50:01.441Z,76.10
2022-10-04T06:51:01.258Z,75.91
2022-10-04T06:52:01.180Z,76.67
2022-10-04T06:53:01.094Z,76.67
2022-10-04T06:54:01.012Z,76.29
2022-10-04T06:55:00.938Z,76.29
2022-10-04T06:56:00.849Z,76.76
2022-10-04T06:57:00.770Z,76.96
2022-10-04T06:58:00.687Z,76.39
2022-10-04T06:59:00.612Z,76.29
2022-10-04T07:00:00.525Z,76.39
2022-10-04T07:01:00.519Z,76.48
2022-10-04T07:02:00.428Z,76.39
2022-10-04T07:03:00.283Z,76.29
2022-10-04T07:04:00.201Z,76.20
2022-10-04T07:05:08.803Z,76.52
2022-10-04T07:06:00.071Z,76.42
2022-10-04T07:06:59.959Z,77.19
2022-10-04T07:07:59.887Z,77.00
2022-10-04T07:08:59.798Z,77.00
2022-10-04T07:09:59.715Z,76.81
2022-10-04T07:10:59.637Z,76.42
2022-10-04T07:11:59.552Z,76.42
2022-10-04T07:12:59.474Z,77.37
2022-10-04T07:13:59.390Z,77.28
2022-10-04T07:14:59.312Z,77.95
2022-10-04T07:15:59.303Z,77.66
2022-10-04T07:16:59.147Z,77.76
2022-10-04T07:17:59.168Z,77.66
2022-10-04T07:18:58.989Z,78.04
2022-10-04T07:19:58.908Z,78.23
2022-10-04T07:20:58.827Z,78.42
2022-10-04T07:21:58.770Z,78.42
2022-10-04T07:22:58.664Z,78.08
2022-10-04T07:23:58.590Z,78.14
2022-10-04T07:24:58.502Z,78.04
2022-10-04T07:25:58.525Z,78.56
2022-10-04T07:26:58.344Z,78.56
2022-10-04T07:27:58.307Z,78.65
2022-10-04T07:28:58.432Z,78.27
2022-10-04T07:29:58.108Z,78.27
2022-10-04T07:30:58.099Z,78.46
2022-10-04T07:31:57.940Z,78.37
2022-10-04T07:32:57.862Z,78.46
2022-10-04T07:33:57.782Z,78.46
2022-10-04T07:34:57.706Z,78.27
2022-10-04T07:35:57.620Z,78.94
2022-10-04T07:36:57.542Z,79.22
2022-10-04T07:37:57.510Z,79.22
2022-10-04T07:38:57.381Z,78.94
2022-10-04T07:39:57.303Z,79.51
2022-10-04T07:40:57.220Z,79.22
2022-10-04T07:41:57.141Z,79.41
2022-10-04T07:42:57.063Z,79.41
2022-10-04T07:43:56.981Z,79.60
2022-10-04T07:44:56.898Z,79.74
2022-10-04T07:45:56.876Z,79.64
2022-10-04T07:46:56.741Z,79.83
2022-10-04T07:47:56.661Z,79.83
2022-10-04T07:48:56.579Z,79.74
2022-10-04T07:49:56.503Z,79.74
2022-10-04T07:50:56.420Z,80.02
2022-10-04T07:51:56.391Z,79.83
2022-10-04T07:52:56.263Z,79.74
2022-10-04T07:53:56.202Z,79.78
2022-10-04T07:54:56.103Z,79.68
2022-10-04T07:55:56.024Z,79.97
2022-10-04T07:56:55.943Z,81.21
2022-10-04T07:57:55.864Z,84.64
2022-10-04T07:58:55.790Z,87.02
2022-10-04T07:59:55.708Z,89.40
2022-10-04T08:00:55.625Z,91.79
2022-10-04T08:01:55.615Z,97.32
2022-10-04T08:02:55.518Z,99.99
2022-10-04T08:03:55.391Z,99.99
2022-10-04T08:04:55.310Z,99.99
2022-10-04T08:05:55.231Z,99.99
2022-10-04T08:06:55.154Z,99.99
2022-10-04T08:07:55.073Z,99.99
2022-10-04T08:08:54.995Z,99.99
2022-10-04T08:09:54.946Z,99.99
2022-10-04T08:10:57.266Z,99.99
2022-10-04T08:11:54.759Z,99.99
2022-10-04T08:12:54.679Z,99.99
2022-10-04T08:13:54.601Z,99.99
2022-10-04T08:14:54.526Z,99.99
2022-10-04T08:15:54.523Z,99.99
2022-10-04T08:16:54.361Z,99.99
2022-10-04T08:17:54.285Z,99.99
2022-10-04T08:18:54.202Z,99.99
2022-10-04T08:19:54.125Z,99.99
2022-10-04T08:20:54.044Z,99.99
2022-10-04T08:21:53.967Z,99.99
2022-10-04T08:22:53.888Z,99.99
2022-10-04T08:23:53.806Z,99.99
2022-10-04T08:24:53.852Z,99.99
2022-10-04T08:25:53.669Z,99.99
2022-10-04T08:26:53.571Z,99.99
2022-10-04T08:27:53.527Z,99.99
2022-10-04T08:28:53.418Z,99.99
2022-10-04T08:29:53.335Z,99.99
2022-10-04T08:30:53.307Z,99.99
2022-10-04T08:31:53.176Z,99.99
2022-10-04T08:32:53.096Z,99.99
2022-10-04T08:33:53.022Z,99.99
2022-10-04T08:34:52.938Z,99.99
2022-10-04T08:35:52.863Z,99.99
2022-10-04T08:36:52.784Z,99.99
2022-10-04T08:37:52.706Z,99.99
2022-10-04T08:38:52.623Z,99.99
2022-10-04T08:39:52.546Z,99.99
2022-10-04T08:40:52.466Z,99.99
2022-10-04T08:41:52.414Z,99.99
2022-10-04T08:42:52.310Z,99.99
2022-10-04T08:43:52.233Z,99.99
2022-10-04T08:44:52.151Z,99.99
2022-10-04T08:45:52.076Z,99.99
2022-10-04T08:46:52.101Z,99.99
2022-10-04T08:47:51.917Z,99.99
2022-10-04T08:48:51.838Z,99.99
2022-10-04T08:49:51.758Z,99.99
2022-10-04T08:50:51.682Z,99.99
2022-10-04T08:51:51.607Z,99.99
2022-10-04T08:52:51.623Z,99.99
2022-10-04T08:53:51.447Z,99.99
2022-10-04T08:54:51.370Z,99.99
2022-10-04T08:55:51.290Z,99.99
2022-10-04T08:56:51.216Z,99.99
2022-10-04T08:57:51.156Z,99.99
2022-10-04T08:58:51.058Z,99.99
2022-10-04T08:59:50.981Z,99.99
2022-10-04T09:00:50.899Z,99.99
2022-10-04T09:01:50.894Z,99.99
2022-10-04T09:02:50.807Z,99.99
2022-10-04T09:03:50.666Z,99.99
2022-10-04T09:04:50.588Z,99.99
2022-10-04T09:05:50.510Z,99.99
2022-10-04T09:06:50.431Z,99.99
2022-10-04T09:07:50.353Z,99.99
2022-10-04T09:08:50.274Z,99.99
2022-10-04T09:09:50.201Z,99.99
2022-10-04T09:10:50.119Z,99.99
2022-10-04T09:11:50.043Z,99.99
2022-10-04T09:12:49.963Z,99.99
2022-10-04T09:13:49.979Z,99.99
2022-10-04T09:14:49.855Z,99.99
2022-10-04T09:15:49.770Z,99.99
2022-10-04T09:16:49.648Z,99.99
2022-10-04T09:17:49.570Z,99.99
2022-10-04T09:18:49.491Z,99.99
2022-10-04T09:19:49.417Z,99.99
2022-10-04T09:20:49.334Z,99.99
2022-10-04T09:21:49.257Z,99.99
2022-10-04T09:22:49.179Z,99.99
2022-10-04T09:23:49.101Z,99.99
2022-10-04T09:24:49.021Z,99.99
2022-10-04T09:25:48.946Z,99.99
2022-10-04T09:26:48.867Z,99.99
2022-10-04T09:27:55.944Z,99.99
2022-10-04T09:28:48.714Z,99.99
2022-10-04T09:29:48.654Z,99.99
2022-10-04T09:30:48.629Z,99.99
2022-10-04T09:31:48.480Z,99.99
2022-10-04T09:32:48.401Z,99.99
2022-10-04T09:33:48.325Z,99.99
2022-10-04T09:34:48.246Z,99.99
2022-10-04T09:35:48.169Z,99.99
2022-10-04T09:36:48.092Z,99.99
2022-10-04T09:37:48.015Z,99.99
2022-10-04T09:38:47.938Z,99.99
2022-10-04T09:39:47.859Z,99.99
2022-10-04T09:40:47.781Z,99.99
2022-10-04T09:41:47.703Z,99.99
2022-10-04T09:42:47.627Z,99.99
2022-10-04T09:43:47.651Z,99.99
2022-10-04T09:44:47.469Z,99.99
2022-10-04T09:45:47.414Z,99.99
2022-10-04T09:46:47.728Z,99.99
2022-10-04T09:47:47.243Z,99.99
2022-10-04T09:48:47.162Z,99.99
2022-10-04T09:49:47.088Z,99.99
2022-10-04T09:50:47.010Z,99.99
2022-10-04T09:51:46.932Z,99.99
2022-10-04T09:52:46.856Z,99.99
2022-10-04T09:53:46.929Z,99.99
2022-10-04T09:54:46.804Z,99.99
2022-10-04T09:55:46.625Z,99.99
2022-10-04T09:56:46.927Z,99.99
2022-10-04T09:57:46.472Z,99.99
2022-10-04T09:58:46.394Z,99.99
2022-10-04T09:59:46.317Z,99.99
2022-10-04T10:00:46.241Z,99.99
2022-10-04T10:01:46.337Z,99.99
2022-10-04T10:02:46.246Z,99.99
2022-10-04T10:03:46.014Z,99.99
2022-10-04T10:04:45.931Z,99.99
2022-10-04T10:05:45.858Z,99.99
2022-10-04T10:06:46.077Z,99.99
2022-10-04T10:07:45.703Z,99.99
2022-10-04T10:08:45.628Z,99.99
2022-10-04T10:09:45.599Z,99.99
2022-10-04T10:10:45.474Z,99.99
2022-10-04T10:11:45.838Z,99.99
2022-10-04T10:12:45.322Z,99.99
2022-10-04T10:13:45.291Z,99.99
2022-10-04T10:14:45.164Z,99.99
2022-10-04T10:15:45.131Z,99.99
2022-10-04T10:16:45.512Z,99.99
2022-10-04T10:17:44.952Z,99.99
2022-10-04T10:18:44.857Z,99.99
2022-10-04T10:19:44.780Z,99.99
2022-10-04T10:20:44.702Z,99.99
2022-10-04T10:21:44.779Z,99.99
2022-10-04T10:22:44.552Z,99.99
2022-10-04T10:23:44.476Z,99.99
2022-10-04T10:24:44.400Z,99.99
2022-10-04T10:25:44.322Z,99.99
2022-10-04T10:26:44.544Z,99.99
2022-10-04T10:27:44.167Z,99.99
2022-10-04T10:28:44.093Z,99.99
2022-10-04T10:29:44.015Z,99.99
2022-10-04T10:30:43.943Z,99.99
2022-10-04T10:31:47.713Z,99.99
2022-10-04T10:32:43.789Z,99.99
2022-10-04T10:33:43.761Z,99.99
2022-10-04T10:34:43.640Z,99.99
2022-10-04T10:35:43.560Z,99.99
2022-10-04T10:36:43.821Z,99.99
2022-10-04T10:37:43.405Z,99.99
2022-10-04T10:38:43.332Z,99.99
2022-10-04T10:39:43.257Z,99.99
2022-10-04T10:40:43.179Z,99.99
2022-10-04T10:41:43.104Z,99.99
2022-10-04T10:42:43.036Z,99.99
2022-10-04T10:43:42.949Z,99.99
2022-10-04T10:44:42.875Z,99.99
2022-10-04T10:45:42.801Z,99.99
2022-10-04T10:46:43.171Z,99.99
2022-10-04T10:47:42.648Z,99.99
2022-10-04T10:48:42.572Z,99.99
2022-10-04T10:49:42.517Z,99.99
2022-10-04T10:50:42.424Z,99.99
2022-10-04T10:51:42.345Z,99.99
2022-10-04T10:52:42.272Z,99.99
2022-10-04T10:53:42.197Z,99.99
2022-10-04T10:54:42.123Z,99.99
2022-10-04T10:55:42.056Z,99.99
2022-10-04T10:56:42.210Z,99.99
2022-10-04T10:57:41.899Z,99.99
2022-10-04T10:58:41.823Z,99.99
2022-10-04T10:59:41.748Z,99.99
2022-10-04T11:00:41.673Z,99.99
2022-10-04T11:01:41.928Z,99.99
2022-10-04T11:02:49.997Z,99.99
2022-10-04T11:03:41.576Z,99.96
2022-10-04T11:04:41.374Z,99.99
2022-10-04T11:05:41.349Z,99.99
2022-10-04T11:06:41.225Z,99.99
2022-10-04T11:07:41.151Z,99.99
2022-10-04T11:08:41.077Z,99.99
2022-10-04T11:09:41.013Z,98.00
2022-10-04T11:10:40.935Z,96.66
2022-10-04T11:11:40.857Z,96.13
2022-10-04T11:12:41.388Z,97.09
2022-10-04T11:13:40.761Z,94.88
2022-10-04T11:14:40.638Z,94.21
2022-10-04T11:15:40.623Z,95.45
2022-10-04T11:16:40.588Z,95.60
2022-10-04T11:17:40.417Z,96.03
2022-10-04T11:18:40.343Z,95.45
2022-10-04T11:19:40.268Z,94.31
2022-10-04T11:20:40.195Z,95.70
2022-10-04T11:21:40.140Z,96.80
2022-10-04T11:22:40.051Z,99.99
2022-10-04T11:23:39.982Z,99.99
2022-10-04T11:24:39.906Z,97.52
2022-10-04T11:25:39.830Z,98.19
2022-10-04T11:26:39.757Z,99.24
2022-10-04T11:27:39.682Z,99.01
2022-10-04T11:28:39.665Z,99.99
2022-10-04T11:29:39.532Z,98.67
2022-10-04T11:30:39.460Z,95.89
2022-10-04T11:31:39.437Z,96.61
2022-10-04T11:32:39.313Z,95.55
2022-10-04T11:33:39.237Z,96.03
2022-10-04T11:34:39.163Z,97.81
2022-10-04T11:35:39.089Z,94.16
2022-10-04T11:36:39.017Z,95.60
2022-10-04T11:37:39.013Z,95.12
2022-10-04T11:38:38.874Z,95.60
2022-10-04T11:39:42.553Z,95.03
2022-10-04T11:40:38.726Z,95.79
2022-10-04T11:41:38.649Z,94.01
2022-10-04T11:42:38.577Z,92.62
2022-10-04T11:43:38.501Z,93.68
2022-10-04T11:44:38.434Z,93.73
2022-10-04T11:45:38.386Z,92.19
2022-10-04T11:46:38.319Z,92.91
2022-10-04T11:47:38.210Z,90.64
2022-10-04T11:48:38.136Z,88.71
2022-10-04T11:49:38.065Z,88.81
2022-10-04T11:50:37.992Z,89.78
2022-10-04T11:51:37.918Z,88.81
2022-10-04T11:52:37.849Z,88.91
2022-10-04T11:53:37.793Z,89.20
2022-10-04T11:54:37.703Z,88.91
2022-10-04T11:55:37.634Z,88.14
2022-10-04T11:56:37.561Z,87.60
2022-10-04T11:57:37.489Z,86.25
2022-10-04T11:58:37.421Z,85.81
2022-10-04T11:59:37.349Z,86.38
2022-10-04T12:02:19.699Z,84.27
2022-10-04T12:03:19.708Z,79.52
2022-10-04T12:04:19.626Z,77.92
2022-10-04T12:06:19.422Z,75.73
2022-10-04T12:07:19.352Z,73.60
2022-10-04T12:09:02.034Z,76.31
2022-10-04T12:10:04.733Z,73.11
2022-10-04T12:11:01.639Z,76.45
2022-10-04T12:12:01.572Z,72.86
2022-10-04T12:13:43.997Z,75.07
2022-10-04T12:14:43.933Z,71.25
2022-10-04T12:15:43.866Z,70.09
2022-10-04T12:16:44.235Z,67.34
2022-10-04T12:17:45.149Z,67.79
2022-10-04T12:18:43.674Z,67.60
2022-10-04T12:20:36.415Z,70.37
2022-10-04T12:21:36.542Z,69.11
2022-10-04T12:22:38.901Z,69.63
2022-10-04T12:23:36.212Z,71.99
2022-10-04T12:24:37.381Z,71.12
2022-10-04T12:25:36.085Z,71.22
2022-10-04T12:26:36.219Z,71.31
2022-10-04T12:27:39.189Z,69.82
2022-10-04T12:28:36.750Z,70.27
2022-10-04T12:29:35.827Z,71.01
2022-10-04T12:30:35.762Z,72.02
2022-10-04T12:31:38.343Z,71.80
2022-10-04T12:32:35.635Z,72.41
2022-10-04T12:33:35.572Z,72.97
2022-10-04T12:37:08.311Z,65.95
2022-10-04T12:38:43.622Z,64.98
2022-10-04T12:39:43.593Z,66.53
2022-10-04T12:40:43.492Z,64.53
2022-10-04T12:41:43.431Z,65.89
2022-10-04T12:42:43.369Z,67.79
2022-10-04T12:43:43.306Z,70.37
2022-10-04T12:44:43.243Z,72.53
2022-10-04T12:45:43.238Z,71.89
2022-10-04T12:46:43.549Z,70.76
2022-10-04T12:47:43.058Z,69.96
2022-10-04T12:48:43.009Z,72.55
2022-10-04T12:49:42.934Z,66.17
2022-10-04T12:50:42.870Z,65.98
2022-10-04T12:51:52.105Z,67.28
2022-10-04T12:54:20.290Z,68.80
2022-10-04T12:55:20.255Z,64.78
2022-10-04T12:56:20.168Z,64.46
2022-10-04T12:57:20.108Z,66.40
2022-10-04T12:58:20.045Z,65.24
2022-10-04T12:59:19.985Z,65.11
2022-10-04T13:00:19.928Z,67.24
2022-10-04T13:01:19.922Z,68.89